Time;durP1;ratioP1;P1;durP2;ratioP2;P2;SDS_P1;SDS_P2;PMS_P1;PMS_P2;Temp;Humidity;BMP_temperature;BMP_pressure;BME280_temperature;BME280_humidity;BME280_pressure;Samples;Min_cycle;Max_cycle;Signal;HPM_P1;HPM_P2
2022/03/08 00:01:52;;;;;;;20.17;13.35;;;8.30;44.30;;;;;;5006296;28;20034;-86
2022/03/08 00:04:18;;;;;;;18.55;13.10;;;8.20;44.80;;;;;;4998451;28;20494;-87
2022/03/08 00:06:44;;;;;;;21.20;13.00;;;8.30;45.00;;;;;;5013494;28;20042;-87
2022/03/08 00:09:10;;;;;;;16.67;11.90;;;8.20;44.80;;;;;;4994439;28;20540;-87
2022/03/08 00:11:35;;;;;;;18.52;12.35;;;8.20;45.20;;;;;;5009309;28;20096;-87
2022/03/08 00:14:01;;;;;;;16.05;11.88;;;8.20;44.50;;;;;;5006976;28;20041;-86
2022/03/08 00:16:27;;;;;;;16.13;11.40;;;8.20;44.20;;;;;;5014139;28;20072;-87
2022/03/08 00:18:52;;;;;;;19.08;11.55;;;8.20;44.60;;;;;;5018079;28;20077;-87
2022/03/08 00:21:18;;;;;;;20.17;11.27;;;8.30;44.60;;;;;;5005002;28;20034;-86
2022/03/08 00:23:45;;;;;;;14.15;10.35;;;8.20;44.20;;;;;;5022819;28;20044;-88
2022/03/08 00:26:10;;;;;;;19.63;11.23;;;8.20;44.10;;;;;;5007955;28;20104;-88
2022/03/08 00:28:36;;;;;;;13.73;9.60;;;8.30;44.30;;;;;;5014869;28;20566;-88
2022/03/08 00:31:02;;;;;;;12.90;9.00;;;8.20;44.30;;;;;;4998729;28;20465;-88
2022/03/08 00:33:28;;;;;;;13.57;9.80;;;8.20;44.60;;;;;;5015789;28;20022;-87
2022/03/08 00:35:54;;;;;;;18.00;10.25;;;8.30;44.80;;;;;;4992829;28;20122;-87
2022/03/08 00:38:21;;;;;;;15.73;9.18;;;8.20;44.80;;;;;;4995828;28;20092;-86
2022/03/08 00:40:47;;;;;;;12.93;8.45;;;8.30;44.40;;;;;;5003878;28;20026;-86
2022/03/08 00:43:12;;;;;;;14.85;7.47;;;8.30;44.60;;;;;;4993014;28;20041;-86
2022/03/08 00:45:39;;;;;;;12.32;8.93;;;8.30;44.40;;;;;;4982470;28;20041;-86
2022/03/08 00:48:05;;;;;;;19.33;9.93;;;8.30;44.50;;;;;;5008784;28;20498;-86
2022/03/08 00:50:31;;;;;;;16.05;10.32;;;8.30;44.90;;;;;;4994823;28;20557;-86
2022/03/08 00:52:58;;;;;;;17.27;10.60;;;8.20;45.90;;;;;;5009408;28;20124;-88
2022/03/08 00:55:27;;;;;;;22.77;12.25;;;8.00;47.20;;;;;;5030679;28;20038;-89
2022/03/08 00:57:54;;;;;;;15.68;11.02;;;8.00;46.80;;;;;;5007722;28;20453;-90
2022/03/08 01:00:22;;;;;;;23.13;12.93;;;8.00;46.20;;;;;;4995355;28;20042;-88
2022/03/08 01:02:48;;;;;;;26.70;16.35;;;8.00;46.80;;;;;;4995605;28;20530;-88
2022/03/08 01:05:14;;;;;;;22.95;15.32;;;7.90;46.90;;;;;;4991724;28;20042;-86
2022/03/08 01:07:40;;;;;;;19.90;14.80;;;7.80;47.00;;;;;;5000448;28;20042;-87
2022/03/08 01:10:09;;;;;;;22.35;16.00;;;7.70;47.10;;;;;;5009211;28;20518;-87
2022/03/08 01:12:35;;;;;;;27.00;18.48;;;7.70;47.10;;;;;;5001946;28;20038;-88
2022/03/08 01:15:01;;;;;;;28.67;20.15;;;7.60;47.50;;;;;;4997740;28;20054;-88
2022/03/08 01:17:27;;;;;;;28.85;20.23;;;7.00;48.40;;;;;;5032677;28;20441;-88
2022/03/08 01:19:53;;;;;;;31.52;19.92;;;6.70;49.40;;;;;;5013285;28;20088;-87
2022/03/08 01:22:19;;;;;;;30.63;17.73;;;6.50;50.30;;;;;;5004858;28;20042;-87
2022/03/08 01:24:45;;;;;;;27.15;18.33;;;6.70;50.50;;;;;;5010274;28;20479;-88
2022/03/08 01:27:11;;;;;;;30.42;20.92;;;6.70;50.50;;;;;;4998470;28;20169;-90
2022/03/08 01:29:37;;;;;;;27.30;20.08;;;6.60;50.20;;;;;;5018919;28;20053;-88
2022/03/08 01:32:03;;;;;;;33.38;19.10;;;6.50;51.30;;;;;;5014683;28;20441;-89
2022/03/08 01:34:29;;;;;;;30.88;20.38;;;6.50;50.80;;;;;;5001609;28;20042;-87
2022/03/08 01:36:55;;;;;;;30.92;17.27;;;6.60;50.90;;;;;;4992539;28;20026;-89
2022/03/08 01:39:21;;;;;;;33.15;18.55;;;6.70;50.60;;;;;;5011529;28;20030;-90
2022/03/08 01:41:47;;;;;;;27.52;17.55;;;6.80;50.40;;;;;;4996144;28;20072;-89
2022/03/08 01:44:13;;;;;;;32.08;19.50;;;6.90;49.80;;;;;;5004210;28;20451;-88
2022/03/08 01:46:40;;;;;;;36.10;20.70;;;6.80;50.70;;;;;;4997935;28;20133;-88
2022/03/08 01:49:07;;;;;;;34.33;20.13;;;6.80;50.50;;;;;;4994685;28;20049;-88
2022/03/08 01:51:34;;;;;;;36.72;20.52;;;6.70;51.00;;;;;;5013885;28;20046;-89
2022/03/08 01:54:00;;;;;;;27.90;18.45;;;6.70;50.40;;;;;;4996124;28;20395;-89
2022/03/08 01:56:26;;;;;;;32.75;20.55;;;6.80;50.10;;;;;;5013264;28;20038;-88
2022/03/08 01:58:51;;;;;;;29.02;18.33;;;6.70;49.50;;;;;;5007117;28;20041;-88
2022/03/08 02:01:17;;;;;;;25.50;16.65;;;6.80;49.20;;;;;;4997674;28;20046;-88
2022/03/08 02:03:43;;;;;;;26.90;17.65;;;6.90;49.90;;;;;;4982083;28;20034;-88
2022/03/08 02:06:08;;;;;;;29.30;17.85;;;6.90;48.70;;;;;;4994535;28;20119;-88
2022/03/08 02:08:34;;;;;;;32.13;20.05;;;7.00;48.40;;;;;;5010595;28;20030;-88
2022/03/08 02:11:00;;;;;;;25.05;17.05;;;7.00;48.90;;;;;;4993922;28;20031;-88
2022/03/08 02:13:26;;;;;;;28.35;18.13;;;6.80;48.70;;;;;;4994447;28;20038;-88
2022/03/08 02:15:52;;;;;;;29.73;16.90;;;6.90;48.40;;;;;;4989746;28;20045;-89
2022/03/08 02:18:19;;;;;;;26.20;17.83;;;6.90;47.70;;;;;;5004169;28;20446;-89
2022/03/08 02:20:45;;;;;;;23.52;15.93;;;7.00;47.90;;;;;;4990973;28;20030;-89
2022/03/08 02:23:12;;;;;;;25.08;16.20;;;7.00;47.10;;;;;;5012394;28;20037;-88
2022/03/08 02:25:38;;;;;;;20.13;14.73;;;7.10;47.00;;;;;;4994258;28;20043;-89
2022/03/08 02:28:04;;;;;;;24.50;15.30;;;7.10;46.50;;;;;;5003698;28;20042;-88
2022/03/08 02:30:30;;;;;;;21.30;15.00;;;7.20;45.50;;;;;;5009063;28;20111;-88
2022/03/08 02:32:56;;;;;;;21.58;15.80;;;7.20;44.80;;;;;;5011859;28;20493;-87
2022/03/08 02:35:26;;;;;;;24.23;17.10;;;7.30;44.80;;;;;;5012778;28;20406;-88
2022/03/08 02:37:56;;;;;;;;;;;7.20;44.90;;;;;;5009349;28;20026;-89
2022/03/08 02:40:24;;;;;;;24.98;16.95;;;7.10;45.70;;;;;;5007451;28;19952;-87
2022/03/08 02:42:50;;;;;;;24.00;16.88;;;6.80;46.30;;;;;;5011762;28;20048;-88
2022/03/08 02:45:17;;;;;;;24.42;17.92;;;6.40;47.00;;;;;;5015124;28;20392;-87
2022/03/08 02:47:43;;;;;;;24.60;17.17;;;6.30;48.00;;;;;;4987866;28;20371;-87
2022/03/08 02:50:11;;;;;;;25.02;16.90;;;6.30;48.20;;;;;;5006445;28;20100;-86
2022/03/08 02:52:39;;;;;;;26.88;18.60;;;6.30;48.00;;;;;;5008825;28;20049;-86
2022/03/08 02:55:06;;;;;;;29.23;19.25;;;6.30;47.60;;;;;;4979444;28;20041;-86
2022/03/08 02:57:31;;;;;;;27.33;17.88;;;6.20;47.80;;;;;;5010935;28;20112;-86
2022/03/08 02:59:57;;;;;;;31.55;17.00;;;6.10;48.00;;;;;;5027189;28;20116;-85
2022/03/08 03:02:23;;;;;;;27.48;18.35;;;6.20;48.60;;;;;;4987878;28;20047;-86
2022/03/08 03:04:48;;;;;;;28.88;19.27;;;6.20;48.90;;;;;;5004757;28;20042;-86
2022/03/08 03:07:14;;;;;;;30.10;19.67;;;6.20;49.60;;;;;;4998273;28;20042;-85
2022/03/08 03:09:40;;;;;;;31.30;19.52;;;6.20;49.80;;;;;;5011691;28;20026;-85
2022/03/08 03:12:07;;;;;;;29.88;19.65;;;6.30;50.50;;;;;;5004562;28;20419;-86
2022/03/08 03:14:32;;;;;;;26.08;19.33;;;6.30;50.30;;;;;;4987054;28;20038;-85
2022/03/08 03:16:58;;;;;;;28.45;18.85;;;6.20;50.50;;;;;;5012138;28;20084;-85
2022/03/08 03:19:24;;;;;;;30.85;19.98;;;6.10;50.60;;;;;;5004071;28;20058;-85
2022/03/08 03:21:49;;;;;;;36.92;19.75;;;6.20;51.10;;;;;;5002428;28;20113;-85
2022/03/08 03:24:16;;;;;;;33.10;20.75;;;6.20;51.10;;;;;;5007370;28;20442;-86
2022/03/08 03:26:42;;;;;;;30.38;20.65;;;6.20;51.00;;;;;;5000308;28;20162;-88
2022/03/08 03:29:09;;;;;;;30.45;21.52;;;6.10;51.40;;;;;;5013595;28;20046;-87
2022/03/08 03:31:35;;;;;;;26.50;18.27;;;6.20;51.00;;;;;;4993631;28;20475;-87
2022/03/08 03:34:00;;;;;;;23.42;17.65;;;6.20;51.00;;;;;;5020665;28;20038;-87
2022/03/08 03:36:26;;;;;;;30.83;19.67;;;6.40;50.90;;;;;;5016572;28;20037;-85
2022/03/08 03:38:53;;;;;;;32.88;20.67;;;6.40;50.80;;;;;;5015340;28;20038;-84
2022/03/08 03:41:19;;;;;;;28.85;20.67;;;6.40;50.40;;;;;;4998654;28;20070;-86
2022/03/08 03:43:44;;;;;;;30.98;20.65;;;6.40;50.10;;;;;;5012089;28;20367;-88
2022/03/08 03:46:10;;;;;;;31.13;22.17;;;6.50;50.40;;;;;;5008318;28;20023;-88
2022/03/08 03:48:36;;;;;;;30.60;20.33;;;6.50;50.60;;;;;;5008719;28;20033;-89
2022/03/08 03:51:02;;;;;;;30.90;20.23;;;6.50;49.30;;;;;;5000202;28;20501;-88
2022/03/08 03:53:28;;;;;;;31.83;21.73;;;6.50;49.70;;;;;;4981984;28;20073;-86
2022/03/08 03:55:54;;;;;;;33.05;22.02;;;6.40;49.20;;;;;;5011955;28;20076;-86
2022/03/08 03:58:20;;;;;;;29.88;20.70;;;6.40;49.40;;;;;;5006463;28;20033;-86
2022/03/08 04:00:45;;;;;;;31.42;21.33;;;6.30;49.80;;;;;;5014416;28;20060;-84
2022/03/08 04:03:13;;;;;;;31.60;20.50;;;6.30;49.90;;;;;;5009511;28;20042;-85
2022/03/08 04:05:39;;;;;;;28.95;20.75;;;6.20;50.20;;;;;;4999921;28;20046;-87
2022/03/08 04:08:04;;;;;;;26.92;18.02;;;6.20;49.90;;;;;;4991518;28;20045;-85
2022/03/08 04:10:30;;;;;;;31.83;20.73;;;6.40;50.00;;;;;;5006246;28;20382;-85
2022/03/08 04:12:56;;;;;;;34.60;21.00;;;6.40;50.10;;;;;;5002016;28;20482;-86
2022/03/08 04:15:22;;;;;;;29.60;19.98;;;6.40;50.00;;;;;;5004717;28;20059;-86
2022/03/08 04:17:47;;;;;;;28.15;19.10;;;6.40;49.80;;;;;;4980114;28;20517;-85
2022/03/08 04:20:13;;;;;;;29.02;20.73;;;6.40;50.10;;;;;;5007342;28;20105;-85
2022/03/08 04:22:39;;;;;;;31.70;21.08;;;6.40;50.50;;;;;;5011316;28;20742;-85
2022/03/08 04:25:06;;;;;;;27.95;19.60;;;6.40;50.30;;;;;;5004327;28;20121;-85
2022/03/08 04:27:32;;;;;;;30.15;19.13;;;6.40;50.50;;;;;;4995623;28;20037;-85
2022/03/08 04:29:58;;;;;;;29.50;19.33;;;6.40;50.60;;;;;;5001567;28;20038;-85
2022/03/08 04:32:24;;;;;;;29.77;20.40;;;6.50;50.30;;;;;;5004930;28;20422;-84
2022/03/08 04:34:49;;;;;;;30.45;21.48;;;6.40;51.00;;;;;;5004389;28;20070;-85
2022/03/08 04:37:15;;;;;;;34.83;20.48;;;6.40;51.10;;;;;;4998213;28;20044;-85
2022/03/08 04:39:41;;;;;;;31.15;19.90;;;6.50;51.00;;;;;;4996190;28;20034;-86
2022/03/08 04:42:06;;;;;;;34.65;20.98;;;6.50;50.80;;;;;;5002309;28;20026;-86
2022/03/08 04:44:32;;;;;;;35.45;21.30;;;6.50;51.10;;;;;;5010530;28;20055;-87
2022/03/08 04:46:58;;;;;;;33.22;22.30;;;6.50;50.50;;;;;;5001615;28;20038;-87
2022/03/08 04:49:25;;;;;;;34.80;21.95;;;6.40;51.20;;;;;;4981487;28;20045;-87
2022/03/08 04:51:51;;;;;;;34.28;22.02;;;6.30;51.00;;;;;;5001244;28;20092;-87
2022/03/08 04:54:17;;;;;;;28.67;20.60;;;6.30;51.00;;;;;;5015091;28;20061;-87
2022/03/08 04:56:43;;;;;;;34.33;20.85;;;6.30;51.40;;;;;;5009382;28;20471;-88
2022/03/08 04:59:09;;;;;;;33.65;21.33;;;6.40;51.60;;;;;;5029596;28;20057;-88
2022/03/08 05:01:35;;;;;;;32.33;21.45;;;6.30;51.80;;;;;;5000229;28;20457;-89
2022/03/08 05:04:01;;;;;;;28.45;21.05;;;6.30;51.50;;;;;;4995940;28;20049;-89
2022/03/08 05:06:30;;;;;;;30.95;22.08;;;6.20;51.50;;;;;;4998784;28;20486;-89
2022/03/08 05:08:55;;;;;;;28.08;19.05;;;6.20;51.40;;;;;;5034672;28;20037;-90
2022/03/08 05:11:21;;;;;;;27.85;19.23;;;6.20;51.80;;;;;;5012461;28;20037;-90
2022/03/08 05:13:47;;;;;;;29.08;19.88;;;6.30;51.70;;;;;;5007034;28;20042;-88
2022/03/08 05:16:12;;;;;;;30.27;19.48;;;6.30;51.90;;;;;;5009594;28;20383;-88
2022/03/08 05:18:38;;;;;;;32.13;20.50;;;6.50;51.90;;;;;;4999411;28;20056;-86
2022/03/08 05:21:04;;;;;;;36.30;20.20;;;6.50;51.40;;;;;;5013540;28;20029;-89
2022/03/08 05:23:29;;;;;;;30.10;20.00;;;6.40;51.80;;;;;;5028184;28;20057;-85
2022/03/08 05:25:55;;;;;;;32.38;21.23;;;6.30;51.70;;;;;;4991867;28;20022;-86
2022/03/08 05:28:21;;;;;;;30.52;19.92;;;6.40;52.30;;;;;;5015270;28;20045;-85
2022/03/08 05:30:46;;;;;;;32.03;20.52;;;6.40;51.30;;;;;;5018923;28;20030;-85
2022/03/08 05:33:12;;;;;;;33.53;20.83;;;6.20;51.60;;;;;;5013841;28;20045;-86
2022/03/08 05:35:38;;;;;;;30.42;19.35;;;6.20;51.90;;;;;;4997200;28;20038;-86
2022/03/08 05:38:04;;;;;;;31.73;21.80;;;6.20;52.40;;;;;;4994770;28;20034;-87
2022/03/08 05:40:30;;;;;;;27.02;19.48;;;6.20;52.40;;;;;;5004027;28;20042;-87
2022/03/08 05:42:58;;;;;;;31.73;21.55;;;6.10;52.80;;;;;;4987840;28;20038;-84
2022/03/08 05:45:24;;;;;;;33.20;20.75;;;6.10;52.60;;;;;;4985504;28;20042;-85
2022/03/08 05:47:50;;;;;;;30.75;21.33;;;6.20;53.20;;;;;;4986585;28;20045;-85
2022/03/08 05:50:15;;;;;;;33.08;22.80;;;6.30;53.20;;;;;;4971671;28;20406;-85
2022/03/08 05:52:41;;;;;;;31.77;22.00;;;6.20;53.30;;;;;;5002537;28;20748;-85
2022/03/08 05:55:08;;;;;;;31.73;20.20;;;6.10;53.30;;;;;;4998785;28;20047;-85
2022/03/08 05:57:33;;;;;;;38.22;21.85;;;6.20;53.20;;;;;;5106577;23;20054;-84
2022/03/08 05:59:59;;;;;;;34.33;20.58;;;6.20;54.30;;;;;;5030208;28;20025;-81
2022/03/08 06:02:25;;;;;;;38.95;22.73;;;6.20;53.70;;;;;;5022827;28;20100;-81
2022/03/08 06:04:51;;;;;;;32.88;20.63;;;6.10;53.20;;;;;;5027946;28;20473;-81
2022/03/08 06:07:16;;;;;;;36.42;22.20;;;6.20;53.10;;;;;;5029350;28;20075;-81
2022/03/08 06:09:42;;;;;;;36.58;22.13;;;6.20;53.30;;;;;;5014189;28;20041;-82
2022/03/08 06:12:08;;;;;;;32.88;20.10;;;6.10;53.10;;;;;;5014406;28;20062;-83
2022/03/08 06:14:34;;;;;;;29.65;20.33;;;6.10;53.20;;;;;;5026113;28;20125;-82
2022/03/08 06:16:59;;;;;;;33.13;20.88;;;6.10;53.30;;;;;;5015897;28;20120;-83
2022/03/08 06:19:25;;;;;;;27.75;19.05;;;6.20;54.00;;;;;;5034064;28;20087;-83
2022/03/08 06:21:52;;;;;;;34.33;20.42;;;6.40;53.70;;;;;;5034750;28;20068;-80
2022/03/08 06:24:17;;;;;;;32.20;19.92;;;6.50;53.30;;;;;;5031994;28;20077;-81
2022/03/08 06:26:43;;;;;;;32.58;20.95;;;6.50;53.00;;;;;;5026961;28;20108;-80
2022/03/08 06:29:09;;;;;;;36.97;23.55;;;6.50;53.90;;;;;;5023474;28;20041;-81
2022/03/08 06:31:36;;;;;;;30.33;21.00;;;6.40;53.10;;;;;;5032005;28;20078;-80
2022/03/08 06:34:02;;;;;;;26.52;18.50;;;6.40;54.00;;;;;;5049241;28;20055;-81
2022/03/08 06:36:28;;;;;;;29.42;20.08;;;6.50;54.80;;;;;;5035585;28;20121;-81
2022/03/08 06:38:53;;;;;;;36.00;22.42;;;6.50;53.20;;;;;;5036110;28;20112;-83
2022/03/08 06:41:19;;;;;;;41.97;24.20;;;6.50;52.70;;;;;;5034761;28;20037;-82
2022/03/08 06:43:45;;;;;;;33.35;23.02;;;6.50;52.90;;;;;;5031230;28;20485;-82
2022/03/08 06:46:11;;;;;;;34.17;21.38;;;6.40;52.40;;;;;;5023777;28;20073;-81
2022/03/08 06:48:37;;;;;;;37.25;22.83;;;6.40;52.70;;;;;;5011453;28;20037;-81
2022/03/08 06:51:04;;;;;;;35.33;22.30;;;6.40;52.50;;;;;;5046652;28;20044;-81
2022/03/08 06:53:30;;;;;;;35.42;22.63;;;6.40;52.80;;;;;;5010448;28;20026;-84
2022/03/08 06:55:56;;;;;;;36.60;22.35;;;6.50;52.00;;;;;;5030396;28;20052;-79
2022/03/08 06:58:22;;;;;;;30.33;19.35;;;6.60;51.00;;;;;;5019090;28;20039;-78
2022/03/08 07:00:48;;;;;;;30.50;20.63;;;6.50;49.00;;;;;;5025844;28;20053;-79
2022/03/08 07:03:14;;;;;;;31.05;21.50;;;6.60;51.80;;;;;;5020228;28;20053;-80
2022/03/08 07:05:40;;;;;;;33.30;20.45;;;6.70;51.40;;;;;;5023330;28;20459;-79
2022/03/08 07:08:06;;;;;;;35.50;20.75;;;6.70;51.60;;;;;;5036485;28;20041;-78
2022/03/08 07:10:32;;;;;;;31.70;20.48;;;6.80;51.90;;;;;;5016100;28;20053;-79
2022/03/08 07:12:58;;;;;;;32.50;20.88;;;6.90;52.20;;;;;;5004583;28;20485;-81
2022/03/08 07:15:23;;;;;;;31.48;20.42;;;7.00;51.90;;;;;;4993687;28;20141;-87
2022/03/08 07:17:49;;;;;;;28.17;19.40;;;7.10;51.30;;;;;;4981029;28;20125;-82
2022/03/08 07:20:15;;;;;;;29.85;19.23;;;7.30;52.00;;;;;;5005482;28;20098;-83
2022/03/08 07:22:42;;;;;;;27.08;18.70;;;7.40;52.50;;;;;;4999657;28;20025;-85
2022/03/08 07:25:09;;;;;;;31.75;21.60;;;7.40;49.00;;;;;;5005948;28;20042;-83
2022/03/08 07:27:35;;;;;;;27.13;18.67;;;7.40;48.90;;;;;;5001831;28;20057;-82
2022/03/08 07:30:03;;;;;;;26.98;17.83;;;7.40;48.50;;;;;;5013624;28;20081;-82
2022/03/08 07:32:29;;;;;;;31.20;20.65;;;7.60;49.10;;;;;;4996174;28;20220;-81
2022/03/08 07:34:54;;;;;;;27.13;18.40;;;7.70;50.40;;;;;;4995251;28;20125;-81
2022/03/08 07:37:20;;;;;;;26.58;17.20;;;7.60;47.20;;;;;;5023804;28;20034;-82
2022/03/08 07:39:46;;;;;;;29.20;18.27;;;7.70;47.00;;;;;;5018850;28;20038;-82
2022/03/08 07:42:11;;;;;;;23.00;15.85;;;7.70;47.40;;;;;;5015217;28;20038;-81
2022/03/08 07:44:38;;;;;;;15.15;10.90;;;7.90;45.40;;;;;;4997339;28;20033;-82
2022/03/08 07:47:04;;;;;;;13.55;9.77;;;7.90;40.90;;;;;;5009575;28;20044;-83
2022/03/08 07:49:30;;;;;;;12.40;8.85;;;8.00;41.20;;;;;;5012563;28;20045;-82
2022/03/08 07:51:56;;;;;;;13.57;8.98;;;8.10;40.40;;;;;;4996165;28;20129;-82
2022/03/08 07:54:22;;;;;;;15.00;11.05;;;8.20;41.00;;;;;;4997588;28;20039;-83
2022/03/08 07:56:48;;;;;;;15.70;10.20;;;8.30;37.40;;;;;;5001905;28;20037;-84
2022/03/08 07:59:14;;;;;;;14.55;11.15;;;8.40;39.90;;;;;;4992035;28;20097;-83
2022/03/08 08:01:40;;;;;;;13.57;10.13;;;8.50;36.90;;;;;;5015144;28;20038;-84
2022/03/08 08:04:06;;;;;;;14.20;9.15;;;8.60;36.10;;;;;;5014978;28;20659;-84
2022/03/08 08:06:31;;;;;;;11.75;8.60;;;8.70;35.20;;;;;;5015193;28;20048;-84
2022/03/08 08:08:57;;;;;;;12.43;9.02;;;8.70;36.90;;;;;;5014789;28;20049;-83
2022/03/08 08:11:23;;;;;;;11.85;9.13;;;8.80;36.80;;;;;;5014933;28;20034;-83
2022/03/08 08:13:49;;;;;;;17.25;8.77;;;8.90;36.40;;;;;;5013931;28;20038;-83
2022/03/08 08:16:17;;;;;;;14.45;10.50;;;9.10;37.50;;;;;;5032493;28;20072;-83
2022/03/08 08:18:43;;;;;;;16.00;10.80;;;9.10;34.30;;;;;;5031947;28;20033;-83
2022/03/08 08:21:09;;;;;;;15.77;11.88;;;9.20;36.70;;;;;;4994899;28;20034;-83
2022/03/08 08:23:35;;;;;;;16.08;10.35;;;9.10;36.60;;;;;;4995310;28;20073;-84
2022/03/08 08:26:01;;;;;;;15.07;9.50;;;9.10;37.70;;;;;;5012211;28;20049;-83
2022/03/08 08:28:26;;;;;;;13.07;9.30;;;9.20;37.70;;;;;;5015528;28;20096;-84
2022/03/08 08:30:52;;;;;;;10.55;8.18;;;9.40;37.10;;;;;;4997816;28;20046;-85
2022/03/08 08:33:17;;;;;;;12.30;9.82;;;9.60;35.60;;;;;;5014410;28;20434;-85
2022/03/08 08:35:43;;;;;;;13.88;10.27;;;9.60;35.60;;;;;;5015270;28;20041;-86
2022/03/08 08:38:09;;;;;;;36.45;28.30;;;9.60;35.90;;;;;;5015602;28;20065;-86
2022/03/08 08:40:35;;;;;;;117.47;87.18;;;9.70;37.80;;;;;;5014536;28;20045;-84
2022/03/08 08:43:02;;;;;;;90.68;65.80;;;9.90;37.90;;;;;;5015651;28;20034;-84
2022/03/08 08:45:29;;;;;;;26.35;18.95;;;10.10;40.70;;;;;;5015042;28;20045;-81
2022/03/08 08:47:55;;;;;;;14.55;9.93;;;10.30;38.70;;;;;;5014570;28;20033;-84
2022/03/08 08:50:21;;;;;;;12.40;9.75;;;10.40;35.50;;;;;;5014281;28;20390;-83
2022/03/08 08:52:47;;;;;;;12.77;9.88;;;10.40;34.00;;;;;;5015006;28;20490;-83
2022/03/08 08:55:13;;;;;;;12.35;9.15;;;10.40;33.00;;;;;;5014908;28;20049;-84
2022/03/08 08:57:39;;;;;;;13.80;9.82;;;10.50;33.90;;;;;;5013732;28;20108;-83
2022/03/08 09:00:07;;;;;;;12.88;9.27;;;10.60;32.40;;;;;;5014710;28;20034;-83
2022/03/08 09:02:34;;;;;;;12.35;10.23;;;10.60;34.60;;;;;;5013193;28;20113;-83
2022/03/08 09:05:05;;;;;;;11.25;9.02;;;10.70;33.40;;;;;;5014394;28;20030;-83
2022/03/08 09:07:31;;;;;;;11.25;9.48;;;10.90;33.90;;;;;;4992394;28;20470;-82
2022/03/08 09:09:57;;;;;;;15.93;10.43;;;11.10;35.50;;;;;;5015321;28;20085;-83
2022/03/08 09:12:25;;;;;;;14.43;10.32;;;11.10;36.00;;;;;;5011254;28;20125;-83
2022/03/08 09:14:50;;;;;;;14.07;9.38;;;11.20;35.50;;;;;;5012226;28;20052;-83
2022/03/08 09:17:16;;;;;;;16.10;10.02;;;11.40;34.50;;;;;;5023274;28;20443;-84
2022/03/08 09:19:42;;;;;;;14.65;11.88;;;11.60;33.30;;;;;;4990738;28;20044;-83
2022/03/08 09:22:08;;;;;;;14.27;10.70;;;11.70;30.80;;;;;;4994983;28;20059;-83
2022/03/08 09:24:35;;;;;;;17.13;11.00;;;11.70;33.30;;;;;;4977542;28;20038;-82
2022/03/08 09:27:04;;;;;;;14.43;11.02;;;11.70;33.00;;;;;;5002098;28;20451;-83
2022/03/08 09:29:31;;;;;;;15.70;11.70;;;11.80;33.50;;;;;;5014673;28;20378;-82
2022/03/08 09:31:57;;;;;;;15.93;11.13;;;11.90;31.90;;;;;;5014059;28;20045;-82
2022/03/08 09:34:22;;;;;;;16.70;12.63;;;12.00;32.10;;;;;;5013982;28;20037;-82
2022/03/08 09:36:48;;;;;;;14.45;11.93;;;12.10;31.70;;;;;;4995918;28;20042;-82
2022/03/08 09:39:14;;;;;;;18.35;12.80;;;12.10;33.00;;;;;;5013929;28;20034;-82
2022/03/08 09:41:41;;;;;;;15.93;12.95;;;12.20;33.50;;;;;;4996424;28;20089;-85
2022/03/08 09:44:14;;;;;;;15.02;12.38;;;12.20;31.20;;;;;;5013896;28;20160;-82
2022/03/08 09:46:41;;;;;;;15.70;12.30;;;12.30;32.00;;;;;;5013490;28;20091;-83
2022/03/08 09:49:07;;;;;;;18.33;14.35;;;12.40;31.80;;;;;;4985768;28;20417;-82
2022/03/08 09:51:37;;;;;;;17.33;13.55;;;12.40;30.70;;;;;;4994422;28;20026;-83
2022/03/08 09:54:05;;;;;;;16.05;12.25;;;12.30;30.80;;;;;;4994202;28;20412;-85
2022/03/08 09:56:31;;;;;;;17.10;13.35;;;12.40;31.00;;;;;;4994524;28;20038;-84
2022/03/08 09:58:59;;;;;;;18.73;13.57;;;12.60;31.40;;;;;;4993872;28;20529;-83
2022/03/08 10:01:25;;;;;;;17.95;14.13;;;12.90;31.40;;;;;;4994795;28;20031;-84
2022/03/08 10:03:53;;;;;;;18.88;14.07;;;13.10;31.20;;;;;;4996917;28;20037;-83
2022/03/08 10:06:19;;;;;;;19.00;13.48;;;13.20;31.00;;;;;;5012358;28;20034;-82
2022/03/08 10:08:44;;;;;;;21.75;13.70;;;13.30;29.70;;;;;;5013342;28;20474;-83
2022/03/08 10:11:14;;;;;;;19.17;14.85;;;13.40;30.40;;;;;;5013111;28;20348;-83
2022/03/08 10:13:46;;;;;;;17.33;14.07;;;13.40;28.90;;;;;;5013451;28;20022;-83
2022/03/08 10:16:24;;;;;;;20.50;13.50;;;13.30;30.30;;;;;;5013081;28;20034;-83
2022/03/08 10:18:56;;;;;;;15.48;13.13;;;13.50;31.50;;;;;;4992828;28;20033;-83
2022/03/08 10:21:33;;;;;;;37.40;14.43;;;13.80;30.40;;;;;;5009020;28;20049;-83
2022/03/08 10:24:02;;;;;;;16.77;12.57;;;14.00;29.80;;;;;;4995533;28;20100;-84
2022/03/08 10:26:48;;;;;;;14.77;11.57;;;14.10;29.20;;;;;;5009625;28;20050;-83
2022/03/08 10:29:20;;;;;;;14.85;11.23;;;14.10;29.40;;;;;;4987597;28;20116;-82
2022/03/08 10:31:46;;;;;;;16.20;12.30;;;14.20;30.10;;;;;;5007130;28;20096;-80
2022/03/08 10:34:16;;;;;;;13.55;11.50;;;14.10;27.50;;;;;;5009696;28;20534;-81
2022/03/08 10:37:01;;;;;;;22.27;13.17;;;14.10;28.20;;;;;;4977887;28;20462;-81
2022/03/08 10:39:26;;;;;;;14.45;11.35;;;14.10;27.80;;;;;;4967024;28;20104;-82
2022/03/08 10:41:54;;;;;;;18.25;12.20;;;14.10;28.50;;;;;;4994550;28;20394;-81
2022/03/08 10:44:39;;;;;;;14.77;12.57;;;14.20;28.00;;;;;;4989437;28;20073;-80
2022/03/08 10:47:13;;;;;;;16.75;12.38;;;14.40;28.10;;;;;;4996442;28;20049;-81
2022/03/08 10:49:47;;;;;;;15.15;12.88;;;14.50;28.00;;;;;;5006920;28;20042;-80
2022/03/08 10:52:13;;;;;;;17.67;12.82;;;14.60;26.70;;;;;;5012980;28;20038;-80
2022/03/08 10:54:39;;;;;;;17.38;12.45;;;14.50;28.00;;;;;;4993466;28;20237;-80
2022/03/08 10:57:04;;;;;;;16.02;12.93;;;14.50;28.20;;;;;;4985919;28;20030;-82
2022/03/08 10:59:31;;;;;;;15.85;13.00;;;14.50;28.20;;;;;;4994991;28;20108;-82
2022/03/08 11:01:57;;;;;;;15.35;12.90;;;14.60;28.40;;;;;;5021045;28;20022;-82
2022/03/08 11:04:24;;;;;;;18.85;14.10;;;14.60;28.10;;;;;;5011074;28;20050;-83
2022/03/08 11:06:52;;;;;;;16.40;13.23;;;14.60;27.40;;;;;;4988502;28;20125;-84
2022/03/08 11:09:19;;;;;;;15.95;12.15;;;14.80;28.30;;;;;;5012674;28;20042;-82
2022/03/08 11:11:45;;;;;;;14.32;11.82;;;15.20;28.30;;;;;;4999412;28;20136;-82
2022/03/08 11:14:12;;;;;;;19.73;12.52;;;15.50;26.70;;;;;;4995741;28;20512;-82
2022/03/08 11:16:39;;;;;;;19.83;13.35;;;15.60;27.70;;;;;;5004043;28;20530;-84
2022/03/08 11:19:07;;;;;;;17.45;13.90;;;15.70;26.90;;;;;;5009995;28;20042;-83
2022/03/08 11:21:35;;;;;;;18.83;14.73;;;15.20;26.70;;;;;;4988444;28;20042;-86
2022/03/08 11:24:04;;;;;;;17.63;13.48;;;14.80;26.50;;;;;;4990558;28;20042;-84
2022/03/08 11:26:30;;;;;;;19.67;15.20;;;14.50;27.60;;;;;;5009156;28;20045;-85
2022/03/08 11:28:56;;;;;;;16.67;14.00;;;14.20;27.80;;;;;;4993316;28;20073;-84
2022/03/08 11:31:30;;;;;;;15.27;13.57;;;14.30;29.00;;;;;;4989804;28;20053;-84
2022/03/08 11:34:21;;;;;;;18.55;13.30;;;14.70;29.10;;;;;;5013973;28;20038;-85
2022/03/08 11:37:03;;;;;;;21.10;14.48;;;15.10;28.90;;;;;;5012036;28;20117;-84
2022/03/08 11:39:30;;;;;;;17.10;14.23;;;15.50;27.60;;;;;;5013067;28;20552;-83
2022/03/08 11:42:18;;;;;;;19.70;16.02;;;15.70;26.60;;;;;;5014193;28;20049;-84
2022/03/08 11:45:20;;;;;;;24.90;16.58;;;15.50;27.30;;;;;;4997092;28;20077;-86
2022/03/08 11:47:53;;;;;;;19.85;14.60;;;15.60;27.00;;;;;;4997117;28;20037;-84
2022/03/08 11:50:28;;;;;;;20.42;15.80;;;16.10;27.20;;;;;;4997453;28;20042;-85
2022/03/08 11:53:18;;;;;;;21.05;15.65;;;16.50;25.90;;;;;;4984373;28;20038;-85
2022/03/08 11:55:43;;;;;;;23.58;16.30;;;16.90;27.10;;;;;;4989533;28;20041;-85
2022/03/08 11:58:11;;;;;;;21.00;15.45;;;16.80;26.90;;;;;;5008782;28;20398;-81
2022/03/08 12:00:52;;;;;;;26.10;16.25;;;17.10;26.10;;;;;;5012845;28;20120;-82
2022/03/08 12:03:23;;;;;;;19.67;15.23;;;17.40;25.80;;;;;;5007875;28;20042;-82
2022/03/08 12:06:08;;;;;;;21.15;16.90;;;17.70;25.90;;;;;;5012132;28;20034;-82
2022/03/08 12:08:33;;;;;;;23.45;17.63;;;18.40;25.80;;;;;;5012143;28;20037;-83
2022/03/08 12:11:14;;;;;;;24.40;17.52;;;18.70;25.20;;;;;;5007075;28;20038;-84
2022/03/08 12:13:43;;;;;;;22.25;16.65;;;18.00;24.00;;;;;;5014625;28;20065;-83
2022/03/08 12:16:09;;;;;;;24.38;17.10;;;17.80;26.10;;;;;;5015789;28;20042;-85
2022/03/08 12:18:50;;;;;;;21.92;16.60;;;18.00;25.20;;;;;;5029951;28;20037;-85
2022/03/08 12:21:15;;;;;;;25.17;18.15;;;18.50;24.80;;;;;;5014671;28;20473;-84
2022/03/08 12:23:55;;;;;;;25.45;17.23;;;18.30;24.20;;;;;;5013845;28;20040;-82
2022/03/08 12:26:26;;;;;;;23.65;17.77;;;18.40;24.90;;;;;;5014918;28;20042;-83
2022/03/08 12:29:20;;;;;;;25.50;17.50;;;18.60;24.50;;;;;;5013720;28;20026;-82
2022/03/08 12:31:58;;;;;;;20.20;17.13;;;18.90;25.20;;;;;;4990765;28;20471;-82
2022/03/08 12:34:35;;;;;;;25.00;17.90;;;18.90;23.90;;;;;;5005821;28;20049;-82
2022/03/08 12:37:08;;;;;;;24.08;17.23;;;18.60;23.80;;;;;;4984837;28;20045;-82